createdAt,value
2019-04-23T00:01:04.765Z,"  19.41"
2019-04-23T00:02:50.816Z,"  19.42"
2019-04-23T00:03:50.032Z,"  19.42"
2019-04-23T00:07:04.032Z,"  19.42"
2019-04-23T00:09:00.914Z,"  19.40"
2019-04-23T00:09:59.766Z,"  19.39"
2019-04-23T00:10:55.236Z,"  19.41"
2019-04-23T00:11:51.658Z,"  19.40"
2019-04-23T00:12:50.873Z,"  19.39"
2019-04-23T00:16:00.355Z,"  19.39"
2019-04-23T00:16:49.316Z,"  19.39"
2019-04-23T00:17:50.141Z,"  19.38"
2019-04-23T00:18:46.098Z,"  19.39"
2019-04-23T00:19:55.739Z,"  19.39"
2019-04-23T00:21:54.327Z,"  19.38"
2019-04-23T00:22:54.689Z,"  19.38"
2019-04-23T00:26:11.801Z,"  19.39"
2019-04-23T00:26:50.445Z,"  19.39"
2019-04-23T00:28:50.752Z,"  19.39"
2019-04-23T00:29:53.421Z,"  19.37"
2019-04-23T00:30:58.237Z,"  19.37"
2019-04-23T00:31:57.609Z,"  19.38"
2019-04-23T00:32:51.631Z,"  19.38"
2019-04-23T00:33:50.921Z,"  19.39"
2019-04-23T00:34:55.905Z,"  19.38"
2019-04-23T00:35:50.364Z,"  19.37"
2019-04-23T00:36:53.735Z,"  19.38"
2019-04-23T00:37:48.409Z,"  19.37"
2019-04-23T00:38:45.458Z,"  19.37"
2019-04-23T00:39:52.431Z,"  19.37"
2019-04-23T00:40:51.264Z,"  19.38"
2019-04-23T00:41:54.991Z,"  19.36"
2019-04-23T00:42:47.792Z,"  19.39"
2019-04-23T00:43:56.235Z,"  19.36"
2019-04-23T00:44:54.379Z,"  19.36"
2019-04-23T00:45:48.440Z,"  19.35"
2019-04-23T00:46:50.702Z,"  19.36"
2019-04-23T00:47:51.360Z,"  19.36"
2019-04-23T00:49:59.900Z,"  19.37"
2019-04-23T00:50:57.408Z,"  19.36"
2019-04-23T00:51:55.233Z,"  19.35"
2019-04-23T00:52:48.004Z,"  19.33"
2019-04-23T00:53:43.844Z,"  19.36"
2019-04-23T00:54:51.904Z,"  19.36"
2019-04-23T00:55:53.007Z,"  19.36"
2019-04-23T00:56:55.020Z,"  19.35"
2019-04-23T00:57:48.707Z,"  19.33"
2019-04-23T00:58:49.517Z,"  19.36"
2019-04-23T01:00:52.710Z,"  19.33"
2019-04-23T01:01:56.643Z,"  19.35"
2019-04-23T01:02:55.399Z,"  19.35"
2019-04-23T01:03:53.073Z,"  19.35"
2019-04-23T01:04:56.464Z,"  19.35"
2019-04-23T01:05:50.416Z,"  19.32"
2019-04-23T01:06:52.325Z,"  19.33"
2019-04-23T01:07:45.710Z,"  19.33"
2019-04-23T01:08:50.877Z,"  19.33"
2019-04-23T01:09:54.484Z,"  19.35"
2019-04-23T01:10:52.022Z,"  19.35"
2019-04-23T01:11:49.834Z,"  19.32"
2019-04-23T01:12:51.214Z,"  19.33"
2019-04-23T01:13:49.590Z,"  19.33"
2019-04-23T01:14:48.214Z,"  19.32"
2019-04-23T01:16:45.977Z,"  19.33"
2019-04-23T01:17:48.667Z,"  19.32"
2019-04-23T01:18:51.461Z,"  19.32"
2019-04-23T01:19:49.881Z,"  19.32"
2019-04-23T01:20:51.581Z,"  19.32"
2019-04-23T01:21:30.598Z,"  19.33"
2019-04-23T01:22:29.629Z,"  19.35"
2019-04-23T01:23:37.653Z,"  19.33"
2019-04-23T01:24:34.344Z,"  19.32"
2019-04-23T01:25:40.498Z,"  19.33"
2019-04-23T01:26:56.358Z,"  19.33"
2019-04-23T01:27:57.220Z,"  19.33"
2019-04-23T01:28:59.879Z,"  19.31"
2019-04-23T01:30:56.698Z,"  19.35"
2019-04-23T01:31:47.523Z,"  19.32"
2019-04-23T01:32:49.764Z,"  19.32"
2019-04-23T01:33:47.037Z,"  19.32"
2019-04-23T01:35:05.418Z,"  19.32"
2019-04-23T01:36:48.652Z,"  19.32"
2019-04-23T01:38:57.127Z,"  19.30"
2019-04-23T01:40:55.479Z,"  19.31"
2019-04-23T01:41:48.076Z,"  19.31"
2019-04-23T01:42:53.549Z,"  19.30"
2019-04-23T01:43:53.091Z,"  19.32"
2019-04-23T01:45:01.956Z,"  19.31"
2019-04-23T01:45:49.171Z,"  19.30"
2019-04-23T01:46:54.206Z,"  19.31"
2019-04-23T01:48:46.878Z,"  19.30"
2019-04-23T01:50:11.355Z,"  19.30"
2019-04-23T01:50:54.935Z,"  19.29"
2019-04-23T01:53:45.222Z,"  19.31"
2019-04-23T01:55:46.991Z,"  19.30"
2019-04-23T01:56:58.065Z,"  19.30"
2019-04-23T01:59:47.292Z,"  19.29"
2019-04-23T02:00:54.442Z,"  19.29"
2019-04-23T02:05:02.994Z,"  19.30"
2019-04-23T02:07:56.966Z,"  19.29"
2019-04-23T02:09:48.427Z,"  19.28"
2019-04-23T02:10:56.329Z,"  19.29"
2019-04-23T02:13:56.809Z,"  19.28"
2019-04-23T02:15:53.462Z,"  19.29"
2019-04-23T02:16:55.093Z,"  19.29"
2019-04-23T02:18:00.097Z,"  19.28"
2019-04-23T02:19:01.669Z,"  19.29"
2019-04-23T02:20:01.411Z,"  19.28"
2019-04-23T02:20:55.542Z,"  19.27"
2019-04-23T02:21:57.749Z,"  19.28"
2019-04-23T02:23:05.008Z,"  19.28"
2019-04-23T02:23:48.979Z,"  19.28"
2019-04-23T02:24:51.155Z,"  19.28"
2019-04-23T02:25:53.789Z,"  19.27"
2019-04-23T02:26:48.563Z,"  19.27"
2019-04-23T02:28:03.273Z,"  19.27"
2019-04-23T02:28:47.592Z,"  19.27"
2019-04-23T02:30:07.904Z,"  19.29"
2019-04-23T02:30:57.789Z,"  19.28"
2019-04-23T02:32:01.356Z,"  19.28"
2019-04-23T02:33:12.395Z,"  19.27"
2019-04-23T02:34:01.330Z,"  19.28"
2019-04-23T02:35:58.639Z,"  19.26"
2019-04-23T02:36:59.889Z,"  19.28"
2019-04-23T02:38:58.124Z,"  19.26"
2019-04-23T02:40:09.096Z,"  19.26"
2019-04-23T02:41:54.361Z,"  19.27"
2019-04-23T02:43:09.481Z,"  19.25"
2019-04-23T02:43:59.255Z,"  19.27"
2019-04-23T02:47:08.281Z,"  19.27"
2019-04-23T02:48:10.830Z,"  19.24"
2019-04-23T02:50:01.733Z,"  19.25"
2019-04-23T02:50:48.424Z,"  19.26"
2019-04-23T02:51:54.590Z,"  19.25"
2019-04-23T02:53:09.444Z,"  19.25"
2019-04-23T02:53:57.959Z,"  19.27"
2019-04-23T02:54:50.972Z,"  19.26"
2019-04-23T02:58:07.132Z,"  19.26"
2019-04-23T03:03:53.270Z,"  19.25"
2019-04-23T03:06:04.906Z,"  19.25"
2019-04-23T03:08:00.658Z,"  19.25"
2019-04-23T03:08:46.633Z,"  19.25"
2019-04-23T03:09:58.758Z,"  19.25"
2019-04-23T03:12:07.055Z,"  19.24"
2019-04-23T03:16:06.538Z,"  19.24"
2019-04-23T03:18:04.708Z,"  19.25"
2019-04-23T03:19:03.034Z,"  19.25"
2019-04-23T03:20:12.305Z,"  19.24"
2019-04-23T03:23:53.616Z,"  19.25"
2019-04-23T03:25:56.931Z,"  19.24"
2019-04-23T03:27:03.529Z,"  19.23"
2019-04-23T03:27:56.223Z,"  19.23"
2019-04-23T03:28:55.308Z,"  19.25"
2019-04-23T03:30:09.068Z,"  19.24"
2019-04-23T03:35:34.454Z,"  19.24"
2019-04-23T03:38:51.793Z,"  19.22"
2019-04-23T03:40:04.528Z,"  19.24"
2019-04-23T03:41:10.754Z,"  19.21"
2019-04-23T03:42:02.668Z,"  19.24"
2019-04-23T03:43:46.493Z,"  19.22"
2019-04-23T03:45:08.383Z,"  19.24"
2019-04-23T03:45:58.827Z,"  19.21"
2019-04-23T03:48:49.492Z,"  19.23"
2019-04-23T03:50:09.365Z,"  19.25"
2019-04-23T03:50:53.091Z,"  19.22"
2019-04-23T03:51:54.064Z,"  19.22"
2019-04-23T03:52:54.837Z,"  19.21"
2019-04-23T03:54:21.299Z,"  19.23"
2019-04-23T03:55:06.225Z,"  19.24"
2019-04-23T03:57:15.589Z,"  19.22"
2019-04-23T03:58:05.018Z,"  19.22"
2019-04-23T03:58:58.214Z,"  19.21"
2019-04-23T04:00:12.602Z,"  19.21"
2019-04-23T04:00:46.751Z,"  19.23"
2019-04-23T04:02:08.998Z,"  19.22"
2019-04-23T04:03:03.741Z,"  19.23"
2019-04-23T04:04:22.755Z,"  19.22"
2019-04-23T04:04:51.743Z,"  19.21"
2019-04-23T04:06:03.781Z,"  19.21"
2019-04-23T04:06:48.030Z,"  19.23"
2019-04-23T04:08:58.251Z,"  19.21"
2019-04-23T04:09:47.957Z,"  19.21"
2019-04-23T04:12:07.785Z,"  19.21"
2019-04-23T04:12:57.600Z,"  19.21"
2019-04-23T04:14:12.110Z,"  19.22"
2019-04-23T04:15:15.591Z,"  19.22"
2019-04-23T04:16:49.154Z,"  19.20"
2019-04-23T04:18:01.798Z,"  19.21"
2019-04-23T04:20:11.040Z,"  19.18"
2019-04-23T04:24:12.599Z,"  19.22"
2019-04-23T04:24:55.164Z,"  19.21"
2019-04-23T04:25:49.962Z,"  19.21"
2019-04-23T04:30:48.482Z,"  19.20"
2019-04-23T04:32:00.290Z,"  19.22"
2019-04-23T04:33:04.981Z,"  19.21"
2019-04-23T04:34:11.309Z,"  19.21"
2019-04-23T04:35:17.752Z,"  19.21"
2019-04-23T04:38:10.031Z,"  19.22"
2019-04-23T04:38:57.725Z,"  19.21"
2019-04-23T04:40:01.760Z,"  19.21"
2019-04-23T04:41:02.951Z,"  19.22"
2019-04-23T04:44:52.390Z,"  19.21"
2019-04-23T04:46:15.094Z,"  19.18"
2019-04-23T04:49:10.502Z,"  19.21"
2019-04-23T04:49:59.706Z,"  19.21"
2019-04-23T04:51:10.829Z,"  19.22"
2019-04-23T04:54:11.041Z,"  19.22"
2019-04-23T04:55:03.089Z,"  19.21"
2019-04-23T04:55:57.229Z,"  19.20"
2019-04-23T04:57:02.016Z,"  19.21"
2019-04-23T04:58:00.642Z,"  19.20"
2019-04-23T05:02:09.440Z,"  19.18"
2019-04-23T05:03:59.938Z,"  19.20"
2019-04-23T05:07:49.420Z,"  19.20"
2019-04-23T05:09:02.250Z,"  19.17"
2019-04-23T05:10:08.449Z,"  19.18"
2019-04-23T05:10:52.044Z,"  19.21"
2019-04-23T05:11:52.251Z,"  19.18"
2019-04-23T05:13:11.954Z,"  19.18"
2019-04-23T05:14:00.267Z,"  19.20"
2019-04-23T05:15:58.159Z,"  19.18"
2019-04-23T05:17:02.890Z,"  19.20"
2019-04-23T05:17:51.818Z,"  19.18"
2019-04-23T05:18:53.715Z,"  19.18"
2019-04-23T05:23:09.109Z,"  19.21"
2019-04-23T05:24:51.331Z,"  19.17"
2019-04-23T05:28:02.707Z,"  19.18"
2019-04-23T05:30:06.076Z,"  19.17"
2019-04-23T05:31:00.045Z,"  19.20"
2019-04-23T05:31:53.458Z,"  19.20"
2019-04-23T05:32:57.960Z,"  19.21"
2019-04-23T05:33:57.936Z,"  19.20"
2019-04-23T05:34:50.426Z,"  19.20"
2019-04-23T05:36:12.628Z,"  19.21"
2019-04-23T05:36:54.186Z,"  19.18"
2019-04-23T05:38:10.362Z,"  19.17"
2019-04-23T05:40:00.443Z,"  19.20"
2019-04-23T05:41:57.192Z,"  19.17"
2019-04-23T05:42:49.854Z,"  19.18"
2019-04-23T05:43:49.191Z,"  19.18"
2019-04-23T05:44:57.156Z,"  19.20"
2019-04-23T05:45:59.352Z,"  19.18"
2019-04-23T05:46:48.601Z,"  19.20"
2019-04-23T05:47:53.353Z,"  19.18"
2019-04-23T05:50:54.066Z,"  19.20"
2019-04-23T05:51:55.506Z,"  19.20"
2019-04-23T05:53:47.509Z,"  19.18"
2019-04-23T05:55:49.371Z,"  19.18"
2019-04-23T05:56:44.343Z,"  19.18"
2019-04-23T05:57:52.061Z,"  19.18"
2019-04-23T05:59:00.574Z,"  19.21"
2019-04-23T05:59:54.779Z,"  19.17"
2019-04-23T06:01:08.654Z,"  19.21"
2019-04-23T06:01:58.813Z,"  19.17"
2019-04-23T06:02:48.177Z,"  19.18"
2019-04-23T06:04:04.063Z,"  19.20"
2019-04-23T06:04:51.662Z,"  19.17"
2019-04-23T06:07:08.773Z,"  19.17"
2019-04-23T06:07:54.623Z,"  19.20"
2019-04-23T06:11:00.904Z,"  19.20"
2019-04-23T06:14:06.433Z,"  19.18"
2019-04-23T06:15:49.199Z,"  19.20"
2019-04-23T06:16:49.871Z,"  19.17"
2019-04-23T06:18:02.290Z,"  19.18"
2019-04-23T06:19:58.609Z,"  19.17"
2019-04-23T06:20:50.312Z,"  19.21"
2019-04-23T06:22:57.694Z,"  19.18"
2019-04-23T06:24:00.631Z,"  19.17"
2019-04-23T06:26:10.112Z,"  19.17"
2019-04-23T06:27:01.190Z,"  19.17"
2019-04-23T06:28:59.057Z,"  19.17"
2019-04-23T06:29:57.444Z,"  19.17"
2019-04-23T06:30:48.945Z,"  19.16"
2019-04-23T06:33:04.281Z,"  19.17"
2019-04-23T06:33:54.274Z,"  19.15"
2019-04-23T06:34:53.237Z,"  19.17"
2019-04-23T06:36:46.543Z,"  19.20"
2019-04-23T06:38:04.808Z,"  19.20"
2019-04-23T06:39:55.140Z,"  19.17"
2019-04-23T06:40:54.088Z,"  19.18"
2019-04-23T06:41:55.232Z,"  19.17"
2019-04-23T06:42:54.063Z,"  19.21"
2019-04-23T06:43:49.986Z,"  19.18"
2019-04-23T06:44:58.162Z,"  19.17"
2019-04-23T06:45:43.473Z,"  19.17"
2019-04-23T06:47:01.732Z,"  19.18"
2019-04-23T06:48:57.446Z,"  19.18"
2019-04-23T06:49:56.744Z,"  19.17"
2019-04-23T06:51:09.399Z,"  19.16"
2019-04-23T06:51:55.139Z,"  19.16"
2019-04-23T06:52:50.053Z,"  19.18"
2019-04-23T06:53:57.903Z,"  19.18"
2019-04-23T06:55:57.440Z,"  19.17"
2019-04-23T06:56:52.950Z,"  19.17"
2019-04-23T06:57:57.064Z,"  19.16"
2019-04-23T06:58:59.205Z,"  19.17"
2019-04-23T06:59:55.107Z,"  19.16"
2019-04-23T07:00:52.022Z,"  19.18"
2019-04-23T07:02:49.551Z,"  19.16"
2019-04-23T07:03:57.034Z,"  19.17"
2019-04-23T07:06:03.772Z,"  19.16"
2019-04-23T07:07:17.475Z,"  19.16"
2019-04-23T07:08:04.287Z,"  19.17"
2019-04-23T07:09:52.051Z,"  19.17"
2019-04-23T07:10:49.108Z,"  19.17"
2019-04-23T07:11:44.311Z,"  19.17"
2019-04-23T07:12:59.700Z,"  19.18"
2019-04-23T07:15:02.811Z,"  19.17"
2019-04-23T07:15:55.124Z,"  19.15"
2019-04-23T07:16:54.249Z,"  19.17"
2019-04-23T07:17:54.303Z,"  19.16"
2019-04-23T07:18:57.568Z,"  19.18"
2019-04-23T07:21:00.992Z,"  19.18"
2019-04-23T07:21:58.706Z,"  19.17"
2019-04-23T07:22:58.471Z,"  19.17"
2019-04-23T07:24:02.266Z,"  19.17"
2019-04-23T07:24:55.358Z,"  19.17"
2019-04-23T07:26:03.847Z,"  19.16"
2019-04-23T07:26:42.499Z,"  19.15"
2019-04-23T07:27:53.122Z,"  19.18"
2019-04-23T07:28:49.840Z,"  19.18"
2019-04-23T07:31:02.133Z,"  19.17"
2019-04-23T07:31:50.041Z,"  19.18"
2019-04-23T07:32:49.808Z,"  19.17"
2019-04-23T07:33:52.994Z,"  19.17"
2019-04-23T07:35:01.030Z,"  19.17"
2019-04-23T07:35:51.716Z,"  19.14"
2019-04-23T07:36:56.145Z,"  19.20"
2019-04-23T07:39:01.179Z,"  19.16"
2019-04-23T07:40:09.635Z,"  19.15"
2019-04-23T07:40:54.399Z,"  19.17"
2019-04-23T07:43:00.101Z,"  19.15"
2019-04-23T07:44:08.583Z,"  19.17"
2019-04-23T07:44:57.975Z,"  19.16"
2019-04-23T07:46:56.340Z,"  19.17"
2019-04-23T07:48:06.280Z,"  19.16"
2019-04-23T07:50:10.960Z,"  19.20"
2019-04-23T07:50:55.039Z,"  19.21"
2019-04-23T07:52:51.335Z,"  19.24"
2019-04-23T07:54:01.293Z,"  19.22"
2019-04-23T07:55:01.929Z,"  19.25"
2019-04-23T07:55:48.539Z,"  19.23"
2019-04-23T07:57:02.282Z,"  19.25"
2019-04-23T07:57:49.362Z,"  19.27"
2019-04-23T07:58:59.160Z,"  19.29"
2019-04-23T07:59:48.700Z,"  19.28"
2019-04-23T08:00:45.557Z,"  19.31"
2019-04-23T08:01:51.186Z,"  19.30"
2019-04-23T08:02:58.308Z,"  19.30"
2019-04-23T08:03:57.724Z,"  19.29"
2019-04-23T08:04:56.589Z,"  19.31"
2019-04-23T08:05:42.631Z,"  19.32"
2019-04-23T08:07:01.275Z,"  19.32"
2019-04-23T08:07:55.538Z,"  19.30"
2019-04-23T08:08:56.481Z,"  19.32"
2019-04-23T08:11:14.380Z,"  19.32"
2019-04-23T08:11:56.645Z,"  19.35"
2019-04-23T08:15:00.019Z,"  19.36"
2019-04-23T08:15:57.398Z,"  19.36"
2019-04-23T08:16:50.345Z,"  19.36"
2019-04-23T08:18:04.776Z,"  19.38"
2019-04-23T08:19:59.620Z,"  19.39"
2019-04-23T08:20:54.184Z,"  19.39"
2019-04-23T08:21:46.433Z,"  19.38"
2019-04-23T08:22:57.177Z,"  19.41"
2019-04-23T08:26:03.268Z,"  19.40"
2019-04-23T08:26:55.314Z,"  19.41"
2019-04-23T08:29:45.862Z,"  19.40"
2019-04-23T08:30:45.503Z,"  19.41"
2019-04-23T08:32:57.418Z,"  19.42"
2019-04-23T08:33:52.960Z,"  19.42"
2019-04-23T08:34:58.603Z,"  19.42"
2019-04-23T08:35:59.310Z,"  19.41"
2019-04-23T08:36:58.313Z,"  19.40"
2019-04-23T08:37:54.231Z,"  19.40"
2019-04-23T08:39:43.560Z,"  19.41"
2019-04-23T08:41:06.160Z,"  19.41"
2019-04-23T08:41:59.365Z,"  19.42"
2019-04-23T08:42:46.881Z,"  19.41"
2019-04-23T08:43:57.171Z,"  19.42"
2019-04-23T08:45:53.632Z,"  19.42"
2019-04-23T08:47:02.966Z,"  19.44"
2019-04-23T08:48:04.132Z,"  19.41"
2019-04-23T08:49:01.332Z,"  19.43"
2019-04-23T08:49:53.673Z,"  19.45"
2019-04-23T08:50:54.635Z,"  19.43"
2019-04-23T08:52:02.479Z,"  19.46"
2019-04-23T08:53:07.010Z,"  19.46"
2019-04-23T08:53:56.908Z,"  19.47"
2019-04-23T08:55:01.533Z,"  19.48"
2019-04-23T08:55:58.146Z,"  19.50"
2019-04-23T08:57:43.073Z,"  19.46"
2019-04-23T08:58:47.570Z,"  19.48"
2019-04-23T08:59:58.901Z,"  19.47"
2019-04-23T09:00:52.666Z,"  19.51"
2019-04-23T09:01:58.028Z,"  19.52"
2019-04-23T09:02:55.151Z,"  19.51"
2019-04-23T09:03:46.279Z,"  19.52"
2019-04-23T09:05:57.374Z,"  19.54"
2019-04-23T09:07:04.078Z,"  19.52"
2019-04-23T09:08:03.798Z,"  19.54"
2019-04-23T09:08:44.312Z,"  19.53"
2019-04-23T09:09:57.659Z,"  19.52"
2019-04-23T09:11:54.023Z,"  19.56"
2019-04-23T09:13:12.979Z,"  19.54"
2019-04-23T09:13:57.457Z,"  19.56"
2019-04-23T09:15:58.324Z,"  19.56"
2019-04-23T09:18:45.989Z,"  19.54"
2019-04-23T09:20:15.126Z,"  19.56"
2019-04-23T09:20:41.536Z,"  19.56"
2019-04-23T09:22:03.753Z,"  19.55"
2019-04-23T09:22:50.086Z,"  19.55"
2019-04-23T09:23:46.774Z,"  19.57"
2019-04-23T09:24:47.285Z,"  19.56"
2019-04-23T09:25:54.344Z,"  19.58"
2019-04-23T09:26:53.655Z,"  19.57"
2019-04-23T09:30:00.040Z,"  19.56"
2019-04-23T09:31:04.055Z,"  19.56"
2019-04-23T09:32:20.841Z,"  19.55"
2019-04-23T09:33:00.053Z,"  19.54"
2019-04-23T09:33:58.669Z,"  19.55"
2019-04-23T09:34:52.724Z,"  19.55"
2019-04-23T09:35:46.017Z,"  19.56"
2019-04-23T09:37:01.182Z,"  19.56"
2019-04-23T09:37:49.323Z,"  19.56"
2019-04-23T09:40:04.843Z,"  19.57"
2019-04-23T09:41:02.963Z,"  19.56"
2019-04-23T09:42:01.088Z,"  19.55"
2019-04-23T09:42:49.412Z,"  19.58"
2019-04-23T09:43:48.432Z,"  19.57"
2019-04-23T09:44:53.645Z,"  19.56"
2019-04-23T09:45:59.836Z,"  19.57"
2019-04-23T09:48:54.594Z,"  19.59"
2019-04-23T09:49:50.104Z,"  19.59"
2019-04-23T09:50:57.204Z,"  19.57"
2019-04-23T09:52:05.711Z,"  19.59"
2019-04-23T09:53:07.986Z,"  19.59"
2019-04-23T09:53:58.057Z,"  19.58"
2019-04-23T09:55:46.740Z,"  19.59"
2019-04-23T09:59:01.199Z,"  19.61"
2019-04-23T10:00:54.414Z,"  19.59"
2019-04-23T10:02:45.598Z,"  19.59"
2019-04-23T10:03:40.608Z,"  19.58"
2019-04-23T10:04:47.663Z,"  19.59"
2019-04-23T10:05:41.287Z,"  19.58"
2019-04-23T10:06:32.523Z,"  19.58"
2019-04-23T10:07:41.905Z,"  19.60"
2019-04-23T10:08:35.598Z,"  19.58"
2019-04-23T10:09:30.085Z,"  19.58"
2019-04-23T10:10:30.240Z,"  19.57"
2019-04-23T10:11:30.538Z,"  19.55"
2019-04-23T10:12:30.247Z,"  19.56"
2019-04-23T10:13:29.711Z,"  19.55"
2019-04-23T10:14:30.415Z,"  19.53"
2019-04-23T10:15:36.201Z,"  19.53"
2019-04-23T10:16:32.468Z,"  19.54"
2019-04-23T10:17:29.187Z,"  19.53"
2019-04-23T10:18:29.228Z,"  19.52"
2019-04-23T10:19:30.807Z,"  19.53"
2019-04-23T10:20:30.745Z,"  19.53"
2019-04-23T10:21:29.351Z,"  19.52"
2019-04-23T10:22:32.173Z,"  19.53"
2019-04-23T10:23:29.600Z,"  19.52"
2019-04-23T10:24:30.843Z,"  19.50"
2019-04-23T10:25:30.154Z,"  19.51"
2019-04-23T10:26:30.282Z,"  19.50"
2019-04-23T10:27:29.528Z,"  19.50"
2019-04-23T10:28:29.688Z,"  19.50"
2019-04-23T10:29:29.923Z,"  19.48"
2019-04-23T10:30:30.955Z,"  19.48"
2019-04-23T10:31:29.443Z,"  19.47"
2019-04-23T10:32:29.750Z,"  19.48"
2019-04-23T10:33:29.710Z,"  19.48"
2019-04-23T10:34:37.049Z,"  19.46"
2019-04-23T10:35:36.566Z,"  19.47"
2019-04-23T10:36:30.520Z,"  19.46"
2019-04-23T10:37:36.707Z,"  19.50"
2019-04-23T10:38:32.727Z,"  19.48"
2019-04-23T10:39:35.614Z,"  19.50"
2019-04-23T10:40:34.836Z,"  19.51"
2019-04-23T10:41:32.732Z,"  19.51"
2019-04-23T10:42:52.255Z,"  19.50"
2019-04-23T10:43:54.137Z,"  19.53"
2019-04-23T10:44:55.486Z,"  19.54"
2019-04-23T10:46:03.853Z,"  19.54"
2019-04-23T10:47:15.037Z,"  19.52"
2019-04-23T10:48:27.982Z,"  19.56"
2019-04-23T10:50:05.711Z,"  19.55"
2019-04-23T10:51:22.740Z,"  19.56"
2019-04-23T10:52:20.548Z,"  19.54"
2019-04-23T10:54:32.910Z,"  19.54"
2019-04-23T10:56:13.532Z,"  19.57"
2019-04-23T10:57:16.642Z,"  19.56"
2019-04-23T10:57:26.869Z,"  19.56"
2019-04-23T11:00:30.550Z,"  19.56"
2019-04-23T11:01:32.091Z,"  19.55"
2019-04-23T11:02:43.511Z,"  19.56"
2019-04-23T11:04:34.072Z,"  19.57"
2019-04-23T11:05:16.362Z,"  19.57"
2019-04-23T11:06:17.762Z,"  19.58"
2019-04-23T11:07:20.512Z,"  19.61"
2019-04-23T11:08:11.202Z,"  19.61"
2019-04-23T11:09:32.926Z,"  19.63"
2019-04-23T11:10:12.684Z,"  19.63"
2019-04-23T11:13:54.889Z,"  19.62"
2019-04-23T11:14:37.717Z,"  19.63"
2019-04-23T11:15:53.086Z,"  19.62"
2019-04-23T11:16:44.728Z,"  19.62"
2019-04-23T11:17:46.567Z,"  19.65"
2019-04-23T11:18:39.951Z,"  19.65"
2019-04-23T11:19:32.239Z,"  19.62"
2019-04-23T11:21:28.593Z,"  19.61"
2019-04-23T11:22:39.301Z,"  19.65"
2019-04-23T11:23:13.060Z,"  19.62"
2019-04-23T11:24:32.465Z,"  19.61"
2019-04-23T11:25:27.990Z,"  19.62"
2019-04-23T11:27:35.091Z,"  19.62"
2019-04-23T11:28:33.598Z,"  19.65"
2019-04-23T11:29:40.462Z,"  19.61"
2019-04-23T11:31:30.902Z,"  19.65"
2019-04-23T11:32:47.065Z,"  19.59"
2019-04-23T11:34:57.346Z,"  19.66"
2019-04-23T11:35:31.685Z,"  19.66"
2019-04-23T11:38:01.637Z,"  19.63"
2019-04-23T11:38:49.125Z,"  19.65"
2019-04-23T11:39:39.806Z,"  19.63"
2019-04-23T11:40:32.809Z,"  19.67"
2019-04-23T11:42:38.827Z,"  19.62"
2019-04-23T11:43:32.715Z,"  19.66"
2019-04-23T11:44:41.502Z,"  19.66"
2019-04-23T11:45:50.588Z,"  19.67"
2019-04-23T11:48:13.880Z,"  19.66"
2019-04-23T11:48:52.210Z,"  19.67"
2019-04-23T11:49:53.692Z,"  19.67"
2019-04-23T11:51:21.913Z,"  19.67"
2019-04-23T11:51:49.019Z,"  19.66"
2019-04-23T11:52:42.349Z,"  19.65"
2019-04-23T11:53:41.264Z,"  19.67"
2019-04-23T11:55:41.277Z,"  19.67"
2019-04-23T11:57:13.432Z,"  19.68"
2019-04-23T11:58:47.621Z,"  19.66"
2019-04-23T12:00:01.818Z,"  19.65"
2019-04-23T12:01:56.240Z,"  19.67"
2019-04-23T12:02:49.704Z,"  19.65"
2019-04-23T12:05:11.625Z,"  19.68"
2019-04-23T12:06:52.939Z,"  19.70"
2019-04-23T12:07:52.369Z,"  19.67"
2019-04-23T12:08:50.595Z,"  19.67"
2019-04-23T12:09:53.612Z,"  19.66"
2019-04-23T12:11:11.825Z,"  19.63"
2019-04-23T12:12:44.763Z,"  19.61"
2019-04-23T12:13:54.495Z,"  19.62"
2019-04-23T12:14:46.333Z,"  19.60"
2019-04-23T12:15:53.374Z,"  19.60"
2019-04-23T12:17:04.953Z,"  19.59"
2019-04-23T12:17:50.882Z,"  19.59"
2019-04-23T12:19:04.654Z,"  19.57"
2019-04-23T12:19:55.639Z,"  19.59"
2019-04-23T12:20:49.159Z,"  19.55"
2019-04-23T12:21:56.557Z,"  19.57"
2019-04-23T12:23:03.043Z,"  19.56"
2019-04-23T12:25:54.296Z,"  19.53"
2019-04-23T12:27:01.513Z,"  19.52"
2019-04-23T12:27:39.348Z,"  19.52"
2019-04-23T12:28:49.939Z,"  19.53"
2019-04-23T12:30:14.677Z,"  19.51"
2019-04-23T12:30:50.159Z,"  19.50"
2019-04-23T12:32:09.018Z,"  19.51"
2019-04-23T12:33:41.132Z,"  19.50"
2019-04-23T12:33:57.447Z,"  19.51"
2019-04-23T12:35:01.459Z,"  19.48"
2019-04-23T12:35:44.111Z,"  19.50"
2019-04-23T12:36:45.644Z,"  19.46"
2019-04-23T12:37:56.167Z,"  19.48"
2019-04-23T12:38:49.258Z,"  19.47"
2019-04-23T12:39:49.415Z,"  19.46"
2019-04-23T12:40:51.508Z,"  19.50"
2019-04-23T12:41:55.891Z,"  19.47"
2019-04-23T12:43:50.043Z,"  19.45"
2019-04-23T12:44:56.644Z,"  19.44"
2019-04-23T12:45:57.844Z,"  19.44"
2019-04-23T12:46:57.614Z,"  19.44"
2019-04-23T12:47:59.650Z,"  19.43"
2019-04-23T12:49:03.243Z,"  19.43"
2019-04-23T12:51:01.205Z,"  19.45"
2019-04-23T12:52:51.241Z,"  19.42"
2019-04-23T12:53:49.397Z,"  19.42"
2019-04-23T12:55:45.039Z,"  19.42"
2019-04-23T12:58:31.069Z,"  19.41"
2019-04-23T12:58:49.061Z,"  19.39"
2019-04-23T12:59:51.615Z,"  19.40"
2019-04-23T13:00:45.998Z,"  19.39"
2019-04-23T13:01:55.615Z,"  19.39"
2019-04-23T13:02:48.596Z,"  19.40"
2019-04-23T13:03:45.579Z,"  19.40"
2019-04-23T13:04:55.078Z,"  19.39"
2019-04-23T13:05:37.118Z,"  19.40"
2019-04-23T13:06:50.756Z,"  19.36"
2019-04-23T13:08:11.808Z,"  19.39"
2019-04-23T13:09:17.858Z,"  19.36"
2019-04-23T13:09:53.603Z,"  19.39"
2019-04-23T13:11:49.650Z,"  19.40"
2019-04-23T13:13:01.896Z,"  19.40"
2019-04-23T13:13:52.011Z,"  19.40"
2019-04-23T13:14:57.669Z,"  19.43"
2019-04-23T13:15:47.840Z,"  19.46"
2019-04-23T13:17:03.617Z,"  19.44"
2019-04-23T13:17:53.853Z,"  19.47"
2019-04-23T13:18:49.659Z,"  19.48"
2019-04-23T13:19:56.558Z,"  19.46"
2019-04-23T13:20:46.813Z,"  19.47"
2019-04-23T13:21:57.168Z,"  19.50"
2019-04-23T13:22:54.823Z,"  19.50"
2019-04-23T13:23:49.543Z,"  19.52"
2019-04-23T13:24:56.007Z,"  19.51"
2019-04-23T13:26:44.536Z,"  19.54"
2019-04-23T13:28:02.829Z,"  19.56"
2019-04-23T13:28:52.886Z,"  19.55"
2019-04-23T13:30:11.827Z,"  19.56"
2019-04-23T13:30:56.900Z,"  19.59"
2019-04-23T13:31:56.789Z,"  19.59"
2019-04-23T13:32:52.200Z,"  19.58"
2019-04-23T13:35:02.663Z,"  19.59"
2019-04-23T13:36:08.457Z,"  19.60"
2019-04-23T13:36:51.382Z,"  19.65"
2019-04-23T13:37:58.899Z,"  19.66"
2019-04-23T13:38:47.445Z,"  19.66"
2019-04-23T13:39:52.283Z,"  19.69"
2019-04-23T13:40:57.176Z,"  19.69"
2019-04-23T13:41:46.241Z,"  19.71"
2019-04-23T13:42:55.699Z,"  19.71"
2019-04-23T13:43:48.581Z,"  19.71"
2019-04-23T13:45:00.954Z,"  19.71"
2019-04-23T13:46:49.792Z,"  19.71"
2019-04-23T13:48:06.339Z,"  19.71"
2019-04-23T13:48:47.089Z,"  19.70"
2019-04-23T13:49:51.189Z,"  19.73"
2019-04-23T13:51:00.203Z,"  19.71"
2019-04-23T13:51:46.731Z,"  19.74"
2019-04-23T13:55:45.621Z,"  19.75"
2019-04-23T13:57:23.687Z,"  19.72"
2019-04-23T13:58:51.118Z,"  19.74"
2019-04-23T13:59:54.072Z,"  19.72"
2019-04-23T14:01:01.107Z,"  19.73"
2019-04-23T14:01:46.773Z,"  19.75"
2019-04-23T14:02:51.283Z,"  19.75"
2019-04-23T14:04:14.311Z,"  19.77"
2019-04-23T14:04:55.959Z,"  19.75"
2019-04-23T14:05:51.274Z,"  19.74"
2019-04-23T14:06:57.427Z,"  19.77"
2019-04-23T14:08:00.840Z,"  19.76"
2019-04-23T14:09:01.863Z,"  19.75"
2019-04-23T14:10:55.788Z,"  19.75"
2019-04-23T14:11:51.268Z,"  19.77"
2019-04-23T14:13:16.997Z,"  19.77"
2019-04-23T14:15:04.035Z,"  19.79"
2019-04-23T14:15:55.756Z,"  19.76"
2019-04-23T14:17:10.882Z,"  19.77"
2019-04-23T14:19:02.447Z,"  19.77"
2019-04-23T14:19:59.882Z,"  19.82"
2019-04-23T14:20:52.012Z,"  19.81"
2019-04-23T14:22:03.034Z,"  19.80"
2019-04-23T14:24:26.560Z,"  19.83"
2019-04-23T14:25:18.859Z,"  19.82"
2019-04-23T14:26:32.277Z,"  19.83"
2019-04-23T14:27:26.033Z,"  19.83"
2019-04-23T14:28:41.766Z,"  19.88"
2019-04-23T14:30:46.374Z,"  19.85"
2019-04-23T14:36:47.802Z,"  19.88"
2019-04-23T14:38:45.818Z,"  19.87"
2019-04-23T14:41:16.528Z,"  19.89"
2019-04-23T14:43:14.352Z,"  19.88"
2019-04-23T14:45:19.160Z,"  19.90"
2019-04-23T14:47:16.907Z,"  19.91"
2019-04-23T14:48:57.666Z,"  19.92"
2019-04-23T14:51:02.405Z,"  19.94"
2019-04-23T14:55:40.339Z,"  19.96"
2019-04-23T14:57:24.574Z,"  19.95"
2019-04-23T15:04:01.585Z,"  20.00"
2019-04-23T15:06:05.428Z,"  19.99"
2019-04-23T15:07:50.397Z,"  19.98"
2019-04-23T15:09:19.614Z,"  19.98"
2019-04-23T15:11:17.133Z,"  19.99"
2019-04-23T15:13:49.415Z,"  20.01"
2019-04-23T15:16:03.128Z,"  20.02"